Time;durP1;ratioP1;P1;durP2;ratioP2;P2;SDS_P1;SDS_P2;PMS_P1;PMS_P2;Temp;Humidity;BMP_temperature;BMP_pressure;BME280_temperature;BME280_humidity;BME280_pressure;Samples;Min_cycle;Max_cycle;Signal;HPM_P1;HPM_P2
2022/08/05 00:01:01;;;;;;;3.80;3.60;;;;;;;;;;5951651;24;20394;-93
2022/08/05 00:03:27;;;;;;;3.63;3.33;;;;;;;;;;5958429;24;20478;-93
2022/08/05 00:05:53;;;;;;;4.67;4.37;;;;;;;;;;5956438;24;20442;-91
2022/08/05 00:08:19;;;;;;;3.67;3.37;;;;;;;;;;5953586;24;20391;-92
2022/08/05 00:10:45;;;;;;;4.63;4.33;;;;;;;;;;5950922;24;20399;-92
2022/08/05 00:13:11;;;;;;;5.03;4.30;;;;;;;;;;5953595;24;20904;-92
2022/08/05 00:15:37;;;;;;;3.63;3.33;;;;;;;;;;5951084;24;20387;-92
2022/08/05 00:18:03;;;;;;;3.87;3.67;;;;;;;;;;5953373;24;20379;-93
2022/08/05 00:20:29;;;;;;;3.80;3.50;;;;;;;;;;5954889;24;20393;-92
2022/08/05 00:22:55;;;;;;;4.53;4.33;;;;;;;;;;5951167;24;20382;-92
2022/08/05 00:25:21;;;;;;;6.83;3.83;;;;;;;;;;5954502;24;20458;-93
2022/08/05 00:27:47;;;;;;;6.40;4.03;;;;;;;;;;5952820;24;20387;-93
2022/08/05 00:30:13;;;;;;;3.60;3.50;;;;;;;;;;5953701;24;20485;-92
2022/08/05 00:32:39;;;;;;;4.90;4.57;;;;;;;;;;5952175;24;20403;-93
2022/08/05 00:35:05;;;;;;;4.00;3.70;;;;;;;;;;5954626;24;20478;-92
2022/08/05 00:37:31;;;;;;;3.33;3.33;;;;;;;;;;5951131;24;20397;-93
2022/08/05 00:39:57;;;;;;;4.30;4.10;;;;;;;;;;5953786;24;20902;-92
2022/08/05 00:42:30;;;;;;;4.73;4.40;;;;;;;;;;5952159;24;20403;-93
2022/08/05 00:44:56;;;;;;;4.83;4.03;;;;;;;;;;5953443;24;20879;-93
2022/08/05 00:47:22;;;;;;;4.03;3.73;;;;;;;;;;5957316;24;20430;-92
2022/08/05 00:49:48;;;;;;;3.93;3.83;;;;;;;;;;5957551;24;20410;-93
2022/08/05 00:52:14;;;;;;;4.10;3.80;;;;;;;;;;5953162;24;20394;-93
2022/08/05 00:54:40;;;;;;;3.57;3.40;;;;;;;;;;5954316;24;20423;-93
2022/08/05 00:57:06;;;;;;;4.20;4.00;;;;;;;;;;5954041;24;21002;-92
2022/08/05 00:59:32;;;;;;;5.60;3.80;;;;;;;;;;5954679;24;20386;-92
2022/08/05 01:01:57;;;;;;;3.67;3.47;;;;;;;;;;5951476;24;20409;-92
2022/08/05 01:04:23;;;;;;;3.80;3.70;;;;;;;;;;5954548;24;20427;-93
2022/08/05 01:06:49;;;;;;;4.93;4.43;;;;;;;;;;5953240;24;20385;-92
2022/08/05 01:09:15;;;;;;;4.87;4.57;;;;;;;;;;5955787;24;20401;-93
2022/08/05 01:11:43;;;;;;;3.47;3.27;;;;;;;;;;5954416;24;20410;-92
2022/08/05 01:14:14;;;;;;;4.57;4.10;;;;;;;;;;5955879;24;20830;-92
2022/08/05 01:16:44;;;;;;;3.70;3.50;;;;;;;;;;5966843;24;20967;-92
2022/08/05 01:19:23;;;;;;;3.70;3.50;;;;;;;;;;5962251;24;20387;-92
2022/08/05 01:22:06;;;;;;;4.73;4.40;;;;;;;;;;5973993;24;20482;-92
2022/08/05 01:24:55;;;;;;;5.17;4.70;;;;;;;;;;5960311;24;20386;-93
2022/08/05 01:27:40;;;;;;;5.20;4.80;;;;;;;;;;5950818;24;20390;-92
2022/08/05 01:30:06;;;;;;;4.43;4.23;;;;;;;;;;5966646;24;20777;-94
2022/08/05 01:32:34;;;;;;;4.17;3.87;;;;;;;;;;5956449;24;20406;-93
2022/08/05 01:35:01;;;;;;;4.00;3.90;;;;;;;;;;5955433;24;20402;-92
2022/08/05 01:37:33;;;;;;;4.90;4.60;;;;;;;;;;5952066;24;20414;-93
2022/08/05 01:40:00;;;;;;;4.27;4.00;;;;;;;;;;5954356;24;20438;-93
2022/08/05 01:42:27;;;;;;;4.47;4.27;;;;;;;;;;5952748;24;20463;-93
2022/08/05 01:44:55;;;;;;;4.23;4.13;;;;;;;;;;5958053;24;20406;-92
2022/08/05 01:47:23;;;;;;;4.93;4.60;;;;;;;;;;5956543;24;20422;-93
2022/08/05 01:49:51;;;;;;;5.20;4.87;;;;;;;;;;5959551;24;20389;-91
2022/08/05 01:52:18;;;;;;;6.13;5.47;;;;;;;;;;5954055;24;20789;-92
2022/08/05 01:54:46;;;;;;;6.67;6.13;;;;;;;;;;5955510;24;20434;-93
2022/08/05 01:57:13;;;;;;;6.53;6.03;;;;;;;;;;5952006;24;20418;-93
2022/08/05 01:59:41;;;;;;;7.37;6.87;;;;;;;;;;5952315;24;20473;-93
2022/08/05 02:02:08;;;;;;;6.73;6.07;;;;;;;;;;5950689;24;20414;-93
2022/08/05 02:04:36;;;;;;;6.43;6.03;;;;;;;;;;5951559;24;20486;-93
2022/08/05 02:07:02;;;;;;;6.70;6.30;;;;;;;;;;5951431;24;20417;-93
2022/08/05 02:09:28;;;;;;;8.23;7.37;;;;;;;;;;5952277;24;20417;-93
2022/08/05 02:11:54;;;;;;;6.10;5.80;;;;;;;;;;5948688;24;20417;-87
2022/08/05 02:14:24;;;;;;;7.07;6.40;;;;;;;;;;5953821;23;20978;-87
2022/08/05 02:16:51;;;;;;;11.97;6.43;;;;;;;;;;5952571;24;20425;-92
2022/08/05 02:19:19;;;;;;;6.50;5.97;;;;;;;;;;5957443;24;20370;-93
2022/08/05 02:22:05;;;;;;;6.73;5.90;;;;;;;;;;5954602;24;20394;-93
2022/08/05 02:24:35;;;;;;;6.27;5.87;;;;;;;;;;5953709;24;20370;-94
2022/08/05 02:27:02;;;;;;;7.07;6.60;;;;;;;;;;5954008;24;20469;-93
2022/08/05 02:29:29;;;;;;;8.77;8.00;;;;;;;;;;5955388;24;20425;-94
2022/08/05 02:31:57;;;;;;;7.93;7.43;;;;;;;;;;5954817;24;20501;-90
2022/08/05 02:34:24;;;;;;;8.23;7.63;;;;;;;;;;5958326;24;20442;-93
2022/08/05 02:36:52;;;;;;;9.27;8.57;;;;;;;;;;5958711;24;20413;-93
2022/08/05 02:39:19;;;;;;;8.07;7.67;;;;;;;;;;5954873;24;20418;-93
2022/08/05 02:41:48;;;;;;;7.83;7.00;;;;;;;;;;5953268;24;20402;-93
2022/08/05 02:44:15;;;;;;;9.13;8.27;;;;;;;;;;5955244;24;20741;-93
2022/08/05 02:46:43;;;;;;;8.53;7.83;;;;;;;;;;5954916;24;20406;-94
2022/08/05 02:49:10;;;;;;;9.17;8.27;;;;;;;;;;5956454;24;20437;-95
2022/08/05 02:51:37;;;;;;;9.00;8.10;;;;;;;;;;5955079;24;20430;-94
2022/08/05 02:54:04;;;;;;;7.50;6.90;;;;;;;;;;5955314;24;20436;-94
2022/08/05 02:56:30;;;;;;;11.50;9.10;;;;;;;;;;5953791;24;20399;-94
2022/08/05 02:58:58;;;;;;;9.17;8.27;;;;;;;;;;5955242;24;20379;-94
2022/08/05 03:01:24;;;;;;;9.27;8.67;;;;;;;;;;5953115;24;20414;-93
2022/08/05 03:03:52;;;;;;;10.13;9.47;;;;;;;;;;5954366;24;20457;-93
2022/08/05 03:06:19;;;;;;;9.13;8.23;;;;;;;;;;5975297;24;20411;-93
2022/08/05 03:08:45;;;;;;;10.57;9.83;;;;;;;;;;5977158;24;20399;-92
2022/08/05 03:11:22;;;;;;;8.77;8.03;;;;;;;;;;5976023;24;21028;-93
2022/08/05 03:13:48;;;;;;;9.70;8.90;;;;;;;;;;5977336;24;20525;-93
2022/08/05 03:16:14;;;;;;;9.73;8.93;;;;;;;;;;5974961;24;20441;-92
2022/08/05 03:18:40;;;;;;;10.07;9.10;;;;;;;;;;5977360;24;20491;-92
2022/08/05 03:21:06;;;;;;;10.77;9.90;;;;;;;;;;5977031;24;20410;-93
2022/08/05 03:23:33;;;;;;;10.17;9.50;;;;;;;;;;5972897;24;20426;-93
2022/08/05 03:26:00;;;;;;;11.33;10.20;;;;;;;;;;5978205;24;20441;-93
2022/08/05 03:28:26;;;;;;;11.23;10.33;;;;;;;;;;5977460;24;20507;-93
2022/08/05 03:30:53;;;;;;;13.27;11.70;;;;;;;;;;5978371;24;20402;-92
2022/08/05 03:33:20;;;;;;;12.77;11.67;;;;;;;;;;5976420;24;20395;-93
2022/08/05 03:35:46;;;;;;;13.70;12.43;;;;;;;;;;5980910;24;20402;-93
2022/08/05 03:38:13;;;;;;;12.93;11.83;;;;;;;;;;5981335;24;20485;-93
2022/08/05 03:40:39;;;;;;;11.47;10.53;;;;;;;;;;5981853;24;20402;-92
2022/08/05 03:43:05;;;;;;;12.83;11.73;;;;;;;;;;5978341;24;20422;-93
2022/08/05 03:45:31;;;;;;;12.63;11.37;;;;;;;;;;5957094;24;20416;-93
2022/08/05 03:47:57;;;;;;;18.57;11.50;;;;;;;;;;5977156;24;20451;-93
2022/08/05 03:50:23;;;;;;;13.03;11.73;;;;;;;;;;5978175;24;20465;-92
2022/08/05 03:52:52;;;;;;;14.07;12.77;;;;;;;;;;5975845;24;20397;-93
2022/08/05 03:55:23;;;;;;;11.53;10.43;;;;;;;;;;5978079;24;20769;-93
2022/08/05 03:57:50;;;;;;;13.30;12.00;;;;;;;;;;5959870;24;20401;-93
2022/08/05 04:00:16;;;;;;;13.53;12.33;;;;;;;;;;5989783;24;20409;-93
2022/08/05 04:02:48;;;;;;;11.60;10.50;;;;;;;;;;5980881;24;20406;-93
2022/08/05 04:05:14;;;;;;;12.97;11.63;;;;;;;;;;5977293;23;20499;-93
2022/08/05 04:07:41;;;;;;;12.23;11.23;;;;;;;;;;5975612;24;20481;-93
2022/08/05 04:10:08;;;;;;;11.87;10.67;;;;;;;;;;5976786;24;20395;-92
2022/08/05 04:12:34;;;;;;;12.50;10.93;;;;;;;;;;5976017;24;20386;-93
2022/08/05 04:15:00;;;;;;;15.70;11.30;;;;;;;;;;5976354;24;20419;-93
2022/08/05 04:17:26;;;;;;;13.67;11.10;;;;;;;;;;5975219;24;20455;-93
2022/08/05 04:19:53;;;;;;;13.23;12.03;;;;;;;;;;5976511;24;20402;-93
2022/08/05 04:22:19;;;;;;;11.70;10.67;;;;;;;;;;5974303;24;20382;-91
2022/08/05 04:24:45;;;;;;;14.30;12.93;;;;;;;;;;5973732;24;20579;-92
2022/08/05 04:27:12;;;;;;;13.10;11.93;;;;;;;;;;5953326;24;20402;-92
2022/08/05 04:29:38;;;;;;;12.37;11.47;;;;;;;;;;5988301;24;20387;-91
2022/08/05 04:32:05;;;;;;;13.40;12.10;;;;;;;;;;5962571;24;20404;-92
2022/08/05 04:34:31;;;;;;;18.50;14.50;;;;;;;;;;5990051;24;20394;-92
2022/08/05 04:36:56;;;;;;;16.67;15.20;;;;;;;;;;5982577;23;20756;-91
2022/08/05 04:39:22;;;;;;;17.27;15.50;;;;;;;;;;5981492;24;20399;-92
2022/08/05 04:41:48;;;;;;;21.47;19.07;;;;;;;;;;5973841;24;20397;-93
2022/08/05 04:44:15;;;;;;;23.33;21.00;;;;;;;;;;5976016;24;20422;-92
2022/08/05 04:46:41;;;;;;;26.30;23.57;;;;;;;;;;5970960;24;20496;-92
2022/08/05 04:49:07;;;;;;;27.20;23.53;;;;;;;;;;5974685;24;20460;-93
2022/08/05 04:51:33;;;;;;;26.37;23.57;;;;;;;;;;5967832;24;20406;-90
2022/08/05 04:54:00;;;;;;;29.13;25.60;;;;;;;;;;5967897;24;20355;-92
2022/08/05 04:56:26;;;;;;;31.43;26.87;;;;;;;;;;5967671;24;20387;-92
2022/08/05 04:58:52;;;;;;;29.63;26.40;;;;;;;;;;5967932;24;20438;-92
2022/08/05 05:01:18;;;;;;;29.13;26.13;;;;;;;;;;5978395;24;20455;-93
2022/08/05 05:03:44;;;;;;;31.57;26.27;;;;;;;;;;5972862;23;20435;-91
2022/08/05 05:06:10;;;;;;;29.57;26.20;;;;;;;;;;5975748;24;20391;-93
2022/08/05 05:08:37;;;;;;;30.23;27.00;;;;;;;;;;5974058;24;20503;-93
2022/08/05 05:11:03;;;;;;;38.43;28.70;;;;;;;;;;5951281;24;20387;-90
2022/08/05 05:13:29;;;;;;;32.20;28.80;;;;;;;;;;5973451;23;20433;-92
2022/08/05 05:15:54;;;;;;;34.17;29.40;;;;;;;;;;5974945;24;20401;-93
2022/08/05 05:18:21;;;;;;;36.60;30.00;;;;;;;;;;5971103;24;20673;-92
2022/08/05 05:20:47;;;;;;;33.97;30.07;;;;;;;;;;5971826;24;20745;-92
2022/08/05 05:23:13;;;;;;;32.47;29.03;;;;;;;;;;5968518;24;20434;-89
2022/08/05 05:25:43;;;;;;;38.00;32.20;;;;;;;;;;5972325;24;20404;-92
2022/08/05 05:28:10;;;;;;;39.37;31.10;;;;;;;;;;5970505;24;20402;-92
2022/08/05 05:30:36;;;;;;;43.50;33.47;;;;;;;;;;5972524;24;20390;-91
2022/08/05 05:33:03;;;;;;;46.13;35.13;;;;;;;;;;5970635;24;20489;-90
2022/08/05 05:35:30;;;;;;;42.27;34.57;;;;;;;;;;5972793;24;20398;-90
2022/08/05 05:37:58;;;;;;;43.40;34.07;;;;;;;;;;5948239;24;20461;-89
2022/08/05 05:40:25;;;;;;;45.70;35.47;;;;;;;;;;5972697;24;20470;-89
2022/08/05 05:42:51;;;;;;;48.43;37.20;;;;;;;;;;5950498;24;20411;-91
2022/08/05 05:45:18;;;;;;;46.07;36.60;;;;;;;;;;5976174;24;20435;-91
2022/08/05 05:47:44;;;;;;;48.90;38.63;;;;;;;;;;5979477;24;20433;-92
2022/08/05 05:50:11;;;;;;;53.73;38.40;;;;;;;;;;5983638;24;20382;-91
2022/08/05 05:52:38;;;;;;;66.43;52.37;;;;;;;;;;5980908;24;20639;-93
2022/08/05 05:55:05;;;;;;;48.10;37.80;;;;;;;;;;5983976;24;20462;-86
2022/08/05 05:57:31;;;;;;;47.97;36.20;;;;;;;;;;5983764;24;20386;-92
2022/08/05 05:59:57;;;;;;;52.60;38.23;;;;;;;;;;5981049;24;20421;-93
2022/08/05 06:02:23;;;;;;;49.40;37.70;;;;;;;;;;5978619;24;20403;-90
2022/08/05 06:04:49;;;;;;;50.57;37.67;;;;;;;;;;5996731;23;20441;-94
2022/08/05 06:07:15;;;;;;;44.20;34.03;;;;;;;;;;5990274;24;20406;-92
2022/08/05 06:09:44;;;;;;;44.97;35.27;;;;;;;;;;5992430;24;20415;-92
2022/08/05 06:12:10;;;;;;;45.37;35.50;;;;;;;;;;5984447;24;20501;-93
2022/08/05 06:14:36;;;;;;;49.90;38.87;;;;;;;;;;5985298;23;20522;-94
2022/08/05 06:17:02;;;;;;;48.30;36.30;;;;;;;;;;5984497;24;20466;-92
2022/08/05 06:19:29;;;;;;;45.90;34.43;;;;;;;;;;5980901;24;20406;-92
2022/08/05 06:21:57;;;;;;;49.60;35.70;;;;;;;;;;5979707;24;20462;-91
2022/08/05 06:24:23;;;;;;;54.00;36.57;;;;;;;;;;5954573;24;20418;-93
2022/08/05 06:26:53;;;;;;;51.63;35.77;;;;;;;;;;5983211;24;20378;-93
2022/08/05 06:29:19;;;;;;;50.60;37.30;;;;;;;;;;5985852;24;20389;-91
2022/08/05 06:31:45;;;;;;;51.13;37.83;;;;;;;;;;5963479;24;20481;-92
2022/08/05 06:34:11;;;;;;;54.37;39.17;;;;;;;;;;5957050;24;20463;-92
2022/08/05 06:36:37;;;;;;;55.77;39.90;;;;;;;;;;5979687;24;20379;-93
2022/08/05 06:39:03;;;;;;;51.93;39.47;;;;;;;;;;5957334;24;20374;-94
2022/08/05 06:41:29;;;;;;;58.57;40.30;;;;;;;;;;5982809;24;20693;-91
2022/08/05 06:43:55;;;;;;;67.20;41.17;;;;;;;;;;5982524;24;20440;-91
2022/08/05 06:46:21;;;;;;;61.17;40.90;;;;;;;;;;5965605;24;20379;-92
2022/08/05 06:48:47;;;;;;;60.43;39.57;;;;;;;;;;5964361;24;20403;-89
2022/08/05 06:51:13;;;;;;;63.50;41.50;;;;;;;;;;5993097;24;20399;-92
2022/08/05 06:53:40;;;;;;;59.17;40.70;;;;;;;;;;5968107;24;20404;-91
2022/08/05 06:56:06;;;;;;;60.43;40.00;;;;;;;;;;5971490;24;20370;-88
2022/08/05 06:58:38;;;;;;;52.63;36.63;;;;;;;;;;5996519;24;20386;-92
2022/08/05 07:01:05;;;;;;;61.60;40.70;;;;;;;;;;5998007;23;20506;-89
2022/08/05 07:03:31;;;;;;;56.03;37.60;;;;;;;;;;5975290;24;20498;-92
2022/08/05 07:06:03;;;;;;;56.93;40.53;;;;;;;;;;5999826;24;20452;-91
2022/08/05 07:08:32;;;;;;;56.53;40.13;;;;;;;;;;6001324;23;20393;-91
2022/08/05 07:10:58;;;;;;;53.17;40.10;;;;;;;;;;5992023;23;20403;-91
2022/08/05 07:18:54;;;;;;;46.07;36.37;;;;;;;;;;5961426;24;20405;-90
2022/08/05 07:21:20;;;;;;;38.80;32.47;;;;;;;;;;5962843;24;20403;-88
2022/08/05 07:23:46;;;;;;;48.00;35.00;;;;;;;;;;5985920;24;20421;-88
2022/08/05 07:26:12;;;;;;;38.10;30.87;;;;;;;;;;5992642;24;20395;-92
2022/08/05 07:28:39;;;;;;;34.47;30.70;;;;;;;;;;5997289;24;20416;-91
2022/08/05 07:31:06;;;;;;;43.87;31.23;;;;;;;;;;5988299;24;20441;-92
2022/08/05 07:33:32;;;;;;;35.57;28.80;;;;;;;;;;5986005;24;20474;-92
2022/08/05 07:35:58;;;;;;;36.23;29.53;;;;;;;;;;5965433;24;20490;-90
2022/08/05 07:38:25;;;;;;;28.13;24.73;;;;;;;;;;5972787;24;20375;-90
2022/08/05 07:40:51;;;;;;;26.77;24.00;;;;;;;;;;5983293;24;20394;-91
2022/08/05 07:43:17;;;;;;;27.23;24.33;;;;;;;;;;5984268;24;20429;-89
2022/08/05 07:45:43;;;;;;;27.97;23.87;;;;;;;;;;5988352;24;20429;-91
2022/08/05 07:48:09;;;;;;;23.20;20.80;;;;;;;;;;5968845;24;20416;-90
2022/08/05 07:50:35;;;;;;;20.20;18.40;;;;;;;;;;5977278;24;20409;-91
2022/08/05 07:53:02;;;;;;;18.83;16.73;;;;;;;;;;5997063;24;20407;-91
2022/08/05 07:55:29;;;;;;;16.97;15.20;;;;;;;;;;5975052;24;20382;-89
2022/08/05 07:57:55;;;;;;;15.03;13.67;;;;;;;;;;5998327;23;20405;-90
2022/08/05 08:00:21;;;;;;;15.50;14.00;;;;;;;;;;5996291;23;20410;-90
2022/08/05 08:02:47;;;;;;;13.87;12.07;;;;;;;;;;5978667;24;20399;-91
2022/08/05 08:05:13;;;;;;;15.13;13.73;;;;;;;;;;6002350;23;20777;-90
2022/08/05 08:07:39;;;;;;;13.97;12.80;;;;;;;;;;5999974;23;20455;-93
2022/08/05 08:10:06;;;;;;;14.30;13.10;;;;;;;;;;5955446;23;20521;-93
2022/08/05 08:12:32;;;;;;;14.53;13.33;;;;;;;;;;6001493;23;20434;-91
2022/08/05 08:14:58;;;;;;;15.53;13.93;;;;;;;;;;5999835;23;20415;-89
2022/08/05 08:17:24;;;;;;;14.83;13.43;;;;;;;;;;5998394;24;20447;-93
2022/08/05 08:19:50;;;;;;;15.60;13.90;;;;;;;;;;5978515;23;20496;-93
2022/08/05 08:22:16;;;;;;;16.40;14.80;;;;;;;;;;5969435;23;20475;-93
2022/08/05 08:24:45;;;;;;;14.43;13.10;;;;;;;;;;5965224;23;20478;-93
2022/08/05 08:27:11;;;;;;;13.73;12.27;;;;;;;;;;5968876;24;20467;-91
2022/08/05 08:29:37;;;;;;;14.30;12.90;;;;;;;;;;5944318;24;20432;-91
2022/08/05 08:32:03;;;;;;;14.33;12.97;;;;;;;;;;5963251;24;20430;-91
2022/08/05 08:34:32;;;;;;;13.87;11.87;;;;;;;;;;5966318;24;20399;-91
2022/08/05 08:37:00;;;;;;;14.10;12.00;;;;;;;;;;5968622;23;20399;-93
2022/08/05 08:42:18;;;;;;;10.83;9.80;;;;;;;;;;5997906;24;20429;-89
2022/08/05 08:44:45;;;;;;;11.20;10.27;;;;;;;;;;5973778;24;20516;-90
2022/08/05 08:47:12;;;;;;;12.77;10.23;;;;;;;;;;5992281;24;20419;-91
2022/08/05 08:49:39;;;;;;;13.00;11.17;;;;;;;;;;5991954;24;20949;-93
2022/08/05 08:52:16;;;;;;;9.57;8.87;;;;;;;;;;5998891;23;20684;-92
2022/08/05 08:54:49;;;;;;;12.03;10.30;;;;;;;;;;5998212;23;20406;-91
2022/08/05 08:57:15;;;;;;;12.03;10.80;;;;;;;;;;5995034;24;20469;-91
2022/08/05 08:59:42;;;;;;;11.20;10.10;;;;;;;;;;5996915;24;20405;-93
2022/08/05 09:02:08;;;;;;;10.00;8.80;;;;;;;;;;5992582;24;20427;-92
2022/08/05 09:04:38;;;;;;;10.87;9.87;;;;;;;;;;5970193;24;20508;-90
2022/08/05 09:07:05;;;;;;;10.57;9.47;;;;;;;;;;5971290;24;20412;-93
2022/08/05 09:09:31;;;;;;;11.00;9.40;;;;;;;;;;5965898;24;20401;-89
2022/08/05 09:11:58;;;;;;;9.63;8.90;;;;;;;;;;5996616;24;20462;-93
2022/08/05 09:14:26;;;;;;;9.50;8.60;;;;;;;;;;5975488;24;20406;-88
2022/08/05 09:16:53;;;;;;;8.97;8.37;;;;;;;;;;5972852;24;20388;-91
2022/08/05 09:19:19;;;;;;;9.13;8.43;;;;;;;;;;5973410;24;20405;-92
2022/08/05 09:21:45;;;;;;;8.23;7.53;;;;;;;;;;5967603;24;20401;-88
2022/08/05 09:24:12;;;;;;;7.37;6.80;;;;;;;;;;5965975;24;20516;-87
2022/08/05 09:26:38;;;;;;;7.63;7.03;;;;;;;;;;5985527;24;20511;-88
2022/08/05 09:29:07;;;;;;;8.03;7.33;;;;;;;;;;5959673;24;20393;-89
2022/08/05 09:31:34;;;;;;;7.17;6.73;;;;;;;;;;5987446;24;20378;-89
2022/08/05 09:34:01;;;;;;;8.30;7.50;;;;;;;;;;5961085;24;20402;-90
2022/08/05 09:36:44;;;;;;;8.27;7.50;;;;;;;;;;5961229;24;20840;-89
2022/08/05 09:39:11;;;;;;;8.83;7.50;;;;;;;;;;5960481;24;20398;-88
2022/08/05 09:41:56;;;;;;;6.90;6.50;;;;;;;;;;5955238;24;20441;-87
2022/08/05 09:44:38;;;;;;;7.00;6.60;;;;;;;;;;5953772;24;20459;-88
2022/08/05 09:47:09;;;;;;;6.77;6.20;;;;;;;;;;5952740;24;20880;-89
2022/08/05 09:49:39;;;;;;;5.83;5.50;;;;;;;;;;5952906;24;20548;-89
2022/08/05 09:52:17;;;;;;;6.90;6.47;;;;;;;;;;5954014;24;20450;-88
2022/08/05 09:54:52;;;;;;;7.43;6.90;;;;;;;;;;5951466;24;20421;-87
2022/08/05 09:57:30;;;;;;;6.07;5.63;;;;;;;;;;5958078;24;20460;-88
2022/08/05 09:59:57;;;;;;;7.10;6.53;;;;;;;;;;5956585;24;20493;-87
2022/08/05 10:02:30;;;;;;;9.03;6.37;;;;;;;;;;5951478;24;20429;-87
2022/08/05 10:05:03;;;;;;;6.90;6.30;;;;;;;;;;5949428;24;20553;-89
2022/08/05 10:07:47;;;;;;;6.63;6.00;;;;;;;;;;5951025;24;20423;-88
2022/08/05 10:10:14;;;;;;;6.07;5.83;;;;;;;;;;5949924;24;20382;-88
2022/08/05 10:12:44;;;;;;;7.60;6.87;;;;;;;;;;5952873;24;20378;-88
2022/08/05 10:15:14;;;;;;;6.70;6.20;;;;;;;;;;5960204;24;20381;-92
2022/08/05 10:17:41;;;;;;;5.57;5.23;;;;;;;;;;5962918;24;20417;-92
2022/08/05 10:20:10;;;;;;;5.47;5.27;;;;;;;;;;5962117;24;20407;-91
2022/08/05 10:22:47;;;;;;;5.60;5.20;;;;;;;;;;5958682;24;20496;-85
2022/08/05 10:25:13;;;;;;;4.90;4.50;;;;;;;;;;5963835;24;20489;-90
2022/08/05 10:27:39;;;;;;;4.70;4.50;;;;;;;;;;5964752;24;20481;-89
2022/08/05 10:30:06;;;;;;;5.03;4.67;;;;;;;;;;5967162;24;20418;-89
2022/08/05 10:32:32;;;;;;;9.47;8.50;;;;;;;;;;5969288;24;20724;-91
2022/08/05 10:35:08;;;;;;;6.53;6.03;;;;;;;;;;5973380;24;20517;-92
2022/08/05 10:37:47;;;;;;;7.60;7.10;;;;;;;;;;5965061;24;20420;-92
2022/08/05 10:40:18;;;;;;;6.57;6.27;;;;;;;;;;5969982;23;20444;-90
2022/08/05 10:42:50;;;;;;;5.67;5.37;;;;;;;;;;6005595;23;20422;-90
2022/08/05 10:45:48;;;;;;;6.43;5.90;;;;;;;;;;5982772;24;20492;-88
2022/08/05 10:48:34;;;;;;;6.10;5.80;;;;;;;;;;5994149;24;20473;-90
2022/08/05 10:51:06;;;;;;;6.00;5.67;;;;;;;;;;5975551;24;20412;-92
2022/08/05 10:53:33;;;;;;;6.67;6.27;;;;;;;;;;5975015;24;20437;-90
2022/08/05 10:56:04;;;;;;;7.20;6.80;;;;;;;;;;5976134;24;20361;-91
2022/08/05 10:58:55;;;;;;;5.17;4.97;;;;;;;;;;6004551;24;20473;-93
2022/08/05 11:04:17;;;;;;;4.57;4.37;;;;;;;;;;5958313;23;20563;-89
2022/08/05 11:06:59;;;;;;;4.57;4.20;;;;;;;;;;5943811;24;20448;-90
2022/08/05 11:09:35;;;;;;;4.50;4.30;;;;;;;;;;5943841;24;20402;-91
2022/08/05 11:12:02;;;;;;;4.27;3.93;;;;;;;;;;5934229;24;21053;-92
2022/08/05 11:14:31;;;;;;;4.57;4.47;;;;;;;;;;5935315;24;20448;-89
2022/08/05 11:17:16;;;;;;;5.33;5.13;;;;;;;;;;5936506;24;20434;-91
2022/08/05 11:19:47;;;;;;;5.50;5.03;;;;;;;;;;5936931;24;20399;-92
2022/08/05 11:22:32;;;;;;;5.10;4.70;;;;;;;;;;5928496;24;20411;-90
2022/08/05 11:25:17;;;;;;;4.97;4.77;;;;;;;;;;5922722;24;20697;-89
2022/08/05 11:27:54;;;;;;;5.50;5.10;;;;;;;;;;5930799;24;20443;-91
2022/08/05 11:30:25;;;;;;;4.83;4.73;;;;;;;;;;5927575;24;20396;-90
2022/08/05 11:33:11;;;;;;;5.17;4.97;;;;;;;;;;5928578;24;20420;-92
2022/08/05 11:35:57;;;;;;;4.30;4.10;;;;;;;;;;5930745;24;20887;-91
2022/08/05 11:38:38;;;;;;;5.07;4.83;;;;;;;;;;5927902;24;20403;-93
2022/08/05 11:41:05;;;;;;;5.70;5.23;;;;;;;;;;5929486;24;20407;-88
2022/08/05 11:43:32;;;;;;;6.33;5.80;;;;;;;;;;5928919;24;20777;-91
2022/08/05 11:46:01;;;;;;;4.43;4.33;;;;;;;;;;5906615;24;20387;-91
2022/08/05 11:48:29;;;;;;;5.20;4.90;;;;;;;;;;5927962;24;20395;-92
2022/08/05 11:50:55;;;;;;;4.20;4.10;;;;;;;;;;5926760;24;20430;-91
2022/08/05 11:53:22;;;;;;;5.10;4.70;;;;;;;;;;5925527;24;20395;-92
2022/08/05 11:56:00;;;;;;;5.23;5.10;;;;;;;;;;5929664;24;20398;-92
2022/08/05 11:58:40;;;;;;;5.83;5.43;;;;;;;;;;5944436;23;20490;-92
2022/08/05 12:01:10;;;;;;;5.10;4.90;;;;;;;;;;5959888;24;20397;-90
2022/08/05 12:03:42;;;;;;;5.87;5.67;;;;;;;;;;5954604;24;20446;-90
2022/08/05 12:06:08;;;;;;;5.80;5.50;;;;;;;;;;5960738;24;20394;-92
2022/08/05 12:08:55;;;;;;;6.57;6.27;;;;;;;;;;5959241;24;20417;-91
2022/08/05 12:11:21;;;;;;;7.07;6.47;;;;;;;;;;5940460;24;20828;-90
2022/08/05 12:13:54;;;;;;;8.90;7.00;;;;;;;;;;5955841;24;20395;-89
2022/08/05 12:16:20;;;;;;;6.60;6.20;;;;;;;;;;5954858;24;20411;-87
2022/08/05 12:18:46;;;;;;;7.00;6.53;;;;;;;;;;5955505;24;20438;-89
2022/08/05 12:21:16;;;;;;;6.40;6.00;;;;;;;;;;5954689;24;20397;-89
2022/08/05 12:24:01;;;;;;;5.83;5.53;;;;;;;;;;5949662;24;20438;-89
2022/08/05 12:26:49;;;;;;;4.77;4.67;;;;;;;;;;5955018;24;20884;-86
2022/08/05 12:29:19;;;;;;;4.23;4.13;;;;;;;;;;5951882;24;20868;-90
2022/08/05 12:31:50;;;;;;;5.87;3.80;;;;;;;;;;5964856;24;20413;-91
2022/08/05 12:34:20;;;;;;;3.60;3.50;;;;;;;;;;5960437;24;20429;-89
2022/08/05 12:36:48;;;;;;;4.57;4.37;;;;;;;;;;5965809;24;20422;-91
2022/08/05 12:39:19;;;;;;;3.40;3.30;;;;;;;;;;5939307;24;20399;-89
2022/08/05 12:42:22;;;;;;;3.93;3.93;;;;;;;;;;5966551;24;20411;-90
2022/08/05 12:45:05;;;;;;;3.20;3.10;;;;;;;;;;5965159;24;20442;-90
2022/08/05 12:47:31;;;;;;;2.80;2.80;;;;;;;;;;5967466;24;20387;-92
2022/08/05 12:49:58;;;;;;;2.67;2.67;;;;;;;;;;5971558;23;20438;-92
2022/08/05 12:52:35;;;;;;;2.90;2.63;;;;;;;;;;5971860;24;20371;-89
2022/08/05 12:55:34;;;;;;;2.63;2.53;;;;;;;;;;5973664;23;20488;-94
2022/08/05 12:58:00;;;;;;;4.13;2.70;;;;;;;;;;5967068;23;20462;-86
2022/08/05 13:00:31;;;;;;;2.80;2.60;;;;;;;;;;5966142;24;20445;-91
2022/08/05 13:03:05;;;;;;;4.27;3.43;;;;;;;;;;5965049;24;20402;-93
2022/08/05 13:05:34;;;;;;;3.37;3.17;;;;;;;;;;5965167;24;20393;-91
2022/08/05 13:08:04;;;;;;;3.30;3.00;;;;;;;;;;5987860;24;20485;-91
2022/08/05 13:11:03;;;;;;;2.90;2.80;;;;;;;;;;5966089;24;20410;-92
2022/08/05 13:18:37;;;;;;;3.13;3.03;;;;;;;;;;5972727;23;20462;-88
2022/08/05 13:21:25;;;;;;;3.40;3.30;;;;;;;;;;5961963;24;20424;-90
2022/08/05 13:23:56;;;;;;;3.20;3.07;;;;;;;;;;5932605;24;20472;-91
2022/08/05 13:26:22;;;;;;;3.30;3.17;;;;;;;;;;5961731;24;20430;-90
2022/08/05 13:31:28;;;;;;;3.17;3.07;;;;;;;;;;5991655;23;20540;-90
2022/08/05 13:33:55;;;;;;;3.37;3.37;;;;;;;;;;5965004;24;20405;-90
2022/08/05 13:39:30;;;;;;;3.57;3.23;;;;;;;;;;5932022;24;20426;-94
2022/08/05 13:44:32;;;;;;;3.47;3.27;;;;;;;;;;5960281;23;20490;-90
2022/08/05 13:46:59;;;;;;;3.37;3.17;;;;;;;;;;5960922;24;20438;-91
2022/08/05 13:49:35;;;;;;;5.40;5.00;;;;;;;;;;5959503;24;20410;-90
2022/08/05 13:52:18;;;;;;;4.30;3.37;;;;;;;;;;5966785;24;20433;-92
2022/08/05 13:54:52;;;;;;;3.20;3.10;;;;;;;;;;5962828;24;20466;-89
2022/08/05 13:57:26;;;;;;;3.57;3.27;;;;;;;;;;5959883;23;20462;-93
2022/08/05 13:59:53;;;;;;;4.03;3.27;;;;;;;;;;5940330;24;20489;-91
2022/08/05 14:02:24;;;;;;;4.10;2.80;;;;;;;;;;5965496;24;20375;-93
2022/08/05 14:05:10;;;;;;;3.30;3.20;;;;;;;;;;5965363;24;20434;-92
2022/08/05 14:07:37;;;;;;;3.00;2.90;;;;;;;;;;5925255;24;20394;-91
2022/08/05 14:10:07;;;;;;;2.57;2.53;;;;;;;;;;5944950;24;20466;-92
2022/08/05 14:12:33;;;;;;;2.37;2.27;;;;;;;;;;5943553;24;20433;-91
2022/08/05 14:14:59;;;;;;;2.50;2.40;;;;;;;;;;5939185;24;20406;-88
2022/08/05 14:17:25;;;;;;;3.17;3.07;;;;;;;;;;5934937;24;20410;-90
2022/08/05 14:19:52;;;;;;;2.97;2.93;;;;;;;;;;5966339;23;20440;-86
2022/08/05 14:22:18;;;;;;;2.60;2.40;;;;;;;;;;5993010;23;20406;-88
2022/08/05 14:24:44;;;;;;;3.43;2.80;;;;;;;;;;5965092;24;20946;-89
2022/08/05 14:27:10;;;;;;;3.90;2.90;;;;;;;;;;5994952;24;20392;-93
2022/08/05 14:29:36;;;;;;;2.27;2.27;;;;;;;;;;5969628;24;20442;-90
2022/08/05 14:32:02;;;;;;;2.60;2.50;;;;;;;;;;5974662;24;20397;-90
2022/08/05 14:34:29;;;;;;;2.83;2.73;;;;;;;;;;5976246;24;20499;-92
2022/08/05 14:36:55;;;;;;;2.37;2.10;;;;;;;;;;5974628;24;20405;-90
2022/08/05 14:39:44;;;;;;;2.30;2.30;;;;;;;;;;5969274;24;20416;-92
2022/08/05 14:42:12;;;;;;;2.33;2.30;;;;;;;;;;5974057;24;20400;-92
2022/08/05 14:44:38;;;;;;;2.10;2.00;;;;;;;;;;5975898;24;20501;-87
2022/08/05 14:47:06;;;;;;;5.70;2.30;;;;;;;;;;5942783;24;20500;-90
2022/08/05 14:49:35;;;;;;;1.70;1.70;;;;;;;;;;5943775;24;20517;-92
2022/08/05 14:52:02;;;;;;;2.23;1.97;;;;;;;;;;5943742;24;20391;-92
2022/08/05 14:54:28;;;;;;;1.93;1.87;;;;;;;;;;5944170;24;20387;-90
2022/08/05 14:56:54;;;;;;;2.43;1.93;;;;;;;;;;5944269;24;20399;-91
2022/08/05 14:59:21;;;;;;;1.75;1.65;;;;;;;;;;5956011;23;20503;-90
2022/08/05 15:01:47;;;;;;;2.37;2.27;;;;;;;;;;6005395;23;20406;-92
2022/08/05 15:04:13;;;;;;;2.00;1.80;;;;;;;;;;5972330;24;20872;-90
2022/08/05 15:06:43;;;;;;;1.40;1.40;;;;;;;;;;5972982;24;20438;-91
2022/08/05 15:09:10;;;;;;;2.00;1.90;;;;;;;;;;5980711;24;20438;-87